NCAR-RAP Real-Time Weather Data

Output produced by METARs form (26 May 2022  08:14 UTC)
found at http://weather.rap.ucar.edu/surface/
 
KSAN 260751Z 24003KT 10SM OVC012 16/13 A2994 RMK AO2 SLP137 T01610133 401890128
KSAN 260651Z 26004KT 10SM BKN012 16/13 A2995 RMK AO2 SLP140 T01610133
KSAN 260551Z 30003KT 10SM BKN012 16/13 A2994 RMK AO2 SLP139 T01560133 10189 20156 51012
KSAN 260525Z 29003KT 10SM BKN012 16/13 A2994 RMK AO2 T01560133
KSAN 260451Z 00000KT 10SM SCT015 16/13 A2994 RMK AO2 SLP138 T01560133
KSAN 260351Z 30004KT 10SM SCT018 16/13 A2992 RMK AO2 SLP132 T01610133
KSAN 260251Z 29005KT 9SM FEW018 FEW250 17/13 A2991 RMK AO2 SLP128 T01670128 53008
KSAN 260151Z 27007KT 10SM FEW018 17/13 A2989 RMK AO2 SLP122 T01720128
KSAN 260051Z 28005KT 10SM FEW018 18/13 A2988 RMK AO2 SLP118 T01830133
KSAN 252351Z 22005KT 10SM FEW018 19/13 A2988 RMK AO2 SLP119 T01890128 10189 20161 58015
KSAN 252251Z 23007KT 10SM FEW018 19/13 A2990 RMK AO2 SLP124 T01890128
KSAN 252151Z 20007KT 10SM SCT018 18/13 A2992 RMK AO2 SLP131 T01830128
KSAN 252140Z 22005KT 10SM SCT018 18/13 A2992 RMK AO2 T01780128
KSAN 252051Z 23006G18KT 10SM BKN017 18/13 A2993 RMK AO2 SLP134 T01830128 58004
KSAN 252007Z VRB06KT 10SM OVC016 17/13 A2994 RMK AO2 T01720128
KSAN 251951Z COR VRB05KT 10SM OVC014 17/13 A2994 RMK AO2 SLP136 T01720128
KSAN 251851Z 21007KT 9SM OVC012 17/13 A2994 RMK AO2 SLP139 T01670133
KSAN 251751Z 20006G18KT 8SM OVC010 16/13 A2994 RMK AO2 SLP137 T01610133 10161 20128 51015
KSAN 251651Z VRB06KT 7SM OVC010 16/13 A2994 RMK AO2 SLP136 T01610133
KSAN 251551Z 21006KT 7SM OVC010 16/13 A2992 RMK AO2 SLP130 T01610133
KSAN 251505Z VRB04KT 7SM BKN010 16/13 A2990 RMK AO2 T01560133
KSAN 251451Z 00000KT 7SM BKN009 16/13 A2989 RMK AO2 SLP122 T01560133 53012
KSAN 251446Z VRB03KT 7SM BKN009 16/13 A2989 RMK AO2
KSAN 251435Z VRB04KT 7SM FEW009 16/13 A2989 RMK AO2 T01560133
KSAN 251351Z 00000KT 5SM BR FEW012 14/13 A2988 RMK AO2 SLP117 T01390133
KSAN 251251Z 35003KT 6SM BR FEW012 13/12 A2986 RMK AO2 SLP112 T01330117
KSAN 251151Z 00000KT 8SM FEW012 13/12 A2986 RMK AO2 SLP111 T01330122 10144 20133 56003
KSAN 251051Z 00000KT 8SM FEW012 13/12 A2986 RMK AO2 SLP111 T01330117
KSAN 250951Z 00000KT 8SM FEW012 14/12 A2986 RMK AO2 SLP112 T01390122
KSAN 250851Z 00000KT 8SM FEW012 14/12 A2987 RMK AO2 SLP114 T01390122 58005
KSAN 250751Z 33003KT 9SM FEW012 14/12 A2988 RMK AO2 SLP117 T01440122 401780144
KSAN 250651Z 35004KT 9SM FEW012 14/12 A2988 RMK AO2 SLP119 T01440122
KSAN 250551Z 31003KT 9SM SCT012 15/12 A2988 RMK AO2 SLP119 T01500122 10167 20144 53010
KSAN 250451Z 30003KT 9SM SCT014 15/12 A2988 RMK AO2 SLP116 T01500122
KSAN 250440Z 30004KT 9SM SCT015 15/12 A2987 RMK AO2 T01500122
KSAN 250351Z 30005KT 9SM BKN015 16/12 A2986 RMK AO2 SLP111 T01560122
KSAN 250251Z 23004KT 8SM BKN016 16/12 A2985 RMK AO2 SLP109 T01610122 53002
KSAN 250151Z VRB05KT 9SM BKN017 16/12 A2985 RMK AO2 SLP108 T01610122
KSAN 250051Z 23003KT 9SM BKN017 16/12 A2984 RMK AO2 SLP106 T01610122
KSAN 242351Z 22008KT 10SM BKN017 17/12 A2985 RMK AO2 SLP107 T01670122 10178 20161 56004
KSAN 242251Z 21008KT 10SM BKN018 17/12 A2985 RMK AO2 SLP108 T01720122
KSAN 242151Z 25006KT 10SM BKN017 17/13 A2985 RMK AO2 SLP109 T01720128
KSAN 242051Z 29007KT 260V320 10SM OVC015 18/13 A2986 RMK AO2 SLP110 T01780128 58006
KSAN 242048Z VRB05KT 10SM OVC015 17/13 A2986 RMK AO2
KSAN 241951Z 27007KT 9SM OVC014 17/13 A2988 RMK AO2 SLP116 T01670128
KSAN 241851Z 26008KT 8SM OVC014 17/13 A2988 RMK AO2 SLP116 T01670128
KSAN 241751Z 27006KT 8SM OVC014 16/13 A2988 RMK AO2 SLP117 T01610128 10167 20150 51003
KSAN 241742Z 24006KT 8SM OVC014 16/13 A2988 RMK AO2 T01610128
KSAN 241651Z 00000KT 8SM OVC015 16/12 A2987 RMK AO2 SLP115 T01610122
KSAN 241641Z 25003KT 8SM OVC015 16/12 A2987 RMK AO2 T01610122
KSAN 241551Z VRB03KT 9SM OVC014 16/12 A2988 RMK AO2 SLP117 T01610122
KSAN 241451Z 00000KT 9SM OVC014 15/12 A2987 RMK AO2 SLP113 T01500122 53007
KSAN 241351Z 29004KT 9SM OVC014 15/12 A2986 RMK AO2 SLP110 T01500122
KSAN 241251Z 28004KT 10SM OVC013 15/12 A2985 RMK AO2 SLP107 T01500122
KSAN 241151Z 32004KT 10SM OVC014 15/12 A2985 RMK AO2 SLP106 T01500117 10150 20150 53000
KSAN 241116Z 03003KT 10SM OVC015 15/12 A2985 RMK AO2 T01500117
KSAN 241051Z 00000KT 10SM OVC014 15/12 A2984 RMK AO2 SLP105 T01500117
KSAN 240951Z 00000KT 10SM OVC013 15/12 A2985 RMK AO2 SLP106 T01500122
KSAN 240851Z 17003KT 10SM OVC013 15/12 A2986 RMK AO2 SLP112 T01500122 56015